• Join FlightAware (Why Join?)
  • Login
  • US Flag 
06:35PM EST


 

Airport Tracker/Info


-or-


 

Live Flight TrackerFlight Track Log ✈ VOZ1165 ✈ 05-Oct-2013 ✈ YSSY / SYD - YCFS

Flight Track Log - Related Links

Times and Time Zones

All times are in EDT time to prevent confusion due to time zone crossing. See the VOZ1165 flight status page for this flight to view local times or setup timezone preferences in your user account.

Time Position Orientation Groundspeed Altitude Reporting Facility
EDT Latitude Longitude Course Direction KTS MPH feet Rate Location/Type
09:52PM -33.9498 151.1885 348° North 152 175 400  Level FlightAware ADS-B (YRAY)
09:53PM -33.9347 151.1877 357° North 164 189 1,400 2,520 Climbing FlightAware ADS-B (YRAY)
09:53PM -33.9298 151.1901 22° Northeast 173 199 1,600 1,620 Climbing FlightAware ADS-B
09:53PM -33.9227 151.1967 37° Northeast 190 219 1,900 1,740 Climbing FlightAware ADS-B
09:53PM -33.9122 151.2087 44° Northeast 214 246 2,400 2,040 Climbing FlightAware ADS-B
09:53PM -33.9008 151.2227 45° Northeast 217 250 3,000 2,460 Climbing FlightAware ADS-B (YRAY)
09:54PM -33.8873 151.2391 45° Northeast 242 278 3,800 1,980 Climbing FlightAware ADS-B
09:54PM -33.8778 151.2507 45° Northeast 256 295 4,000 1,860 Climbing FlightAware ADS-B (YRAY)
09:54PM -33.8615 151.2704 45° Northeast 283 326 4,700 1,920 Climbing FlightAware ADS-B
09:54PM -33.8550 151.2783 45° Northeast 277 319 4,800 1,260 Climbing FlightAware ADS-B (YRAY)
09:54PM -33.8475 151.2873 45° Northeast 284 327 5,000 480 Climbing FlightAware ADS-B (YRAY)
09:55PM -33.8322 151.3057 45° Northeast 291 335 5,000  Level FlightAware ADS-B
09:55PM -33.8127 151.3291 45° Northeast 291 335 5,000  Level FlightAware ADS-B
09:55PM -33.7917 151.3541 45° Northeast 291 335 5,000  Level FlightAware ADS-B
09:56PM -33.7743 151.3747 44° Northeast 293 337 5,000 1,560 Level FlightAware ADS-B
09:56PM -33.7519 151.3950 37° Northeast 293 337 6,000 3,060 Climbing FlightAware ADS-B
09:56PM -33.7365 151.4035 25° Northeast 290 334 6,700 3,360 Climbing FlightAware ADS-B
09:57PM -33.7109 151.4142 19° North 296 341 7,800 3,000 Climbing FlightAware ADS-B
09:57PM -33.6699 151.4310 19° North 308 354 9,300 2,460 Climbing FlightAware ADS-B
09:58PM -33.6420 151.4430 20° North 306 352 10,400 3,000 Climbing FlightAware
09:58PM -33.6147 151.4537 18° North 324 373 11,300 3,240 Climbing FlightAware ADS-B
09:58PM -33.5604 151.4760 19° North 328 377 12,900 2,580 Climbing FlightAware ADS-B
09:59PM -33.5166 151.4940 19° North 334 384 14,200 2,520 Climbing FlightAware ADS-B
09:59PM -33.4671 151.5143 19° North 352 405 15,600 2,520 Climbing FlightAware ADS-B
10:00PM -33.4190 151.5340 19° North 359 413 16,900 2,580 Climbing FlightAware ADS-B
10:00PM -33.3713 151.5534 19° North 362 417 18,200 2,400 Climbing FlightAware ADS-B
10:01PM -33.3231 151.5731 19° North 370 426 19,300 2,220 Climbing FlightAware ADS-B
10:02PM -33.2584 151.5994 19° North 380 437 20,800 2,220 Climbing FlightAware ADS-B
10:02PM -33.1912 151.6268 19° North 385 443 22,300 2,280 Climbing FlightAware ADS-B
10:03PM -33.1368 151.6489 19° North 386 444 23,600 2,220 Climbing FlightAware ADS-B
10:03PM -33.0777 151.6730 19° North 389 448 24,800 1,440 Climbing FlightAware ADS-B
10:04PM -33.0080 151.7010 19° North 407 468 25,500 1,140 Climbing FlightAware
10:05PM -32.9420 151.7280 19° North 412 474 26,300 1,320 Climbing FlightAware
10:05PM -32.9222 151.7358 18° North 414 476 26,500 1,140 Climbing FlightAware ADS-B
10:05PM -32.8534 151.7636 19° North 434 499 27,200 1,320 Climbing FlightAware ADS-B
10:06PM -32.7830 151.7920 19° North 428 493 28,200 1,440 Climbing FlightAware
10:07PM -32.7140 151.8190 18° North 441 507 29,000 1,440 Climbing FlightAware
10:07PM -32.6480 151.8460 19° North 442 509 29,900 840 Climbing FlightAware
10:08PM -32.5780 151.8740 19° North 440 506 30,000 60 Climbing FlightAware
10:08PM -32.5110 151.9010 19° North 440 506 30,000  Level FlightAware
10:09PM -32.4360 151.9310 19° North 439 505 30,000  Level FlightAware
10:10PM -32.3574 151.9626 19° North 440 506 30,000  Level FlightAware ADS-B
10:10PM -32.3000 151.9860 19° North 440 506 30,000  Level FlightAware
10:11PM -32.2220 152.0160 18° North 442 509 30,000  Level FlightAware
10:11PM -32.1680 152.0380 19° North 443 510 30,000  Level FlightAware
10:12PM -32.0870 152.0700 19° North 445 512 30,000  Level FlightAware
10:13PM -32.0240 152.0950 19° North 444 511 30,000  Level FlightAware
10:13PM -31.9420 152.1280 19° North 446 513 30,000  Level FlightAware
10:14PM -31.8740 152.1540 18° North 445 512 30,000  Level FlightAware
10:14PM -31.8130 152.1780 18° North 444 511 30,000 -300 Level FlightAware
10:15PM -31.7440 152.2050 18° North 460 529 29,700 -720 Descending FlightAware
10:16PM -31.6720 152.2340 19° North 476 548 29,200 -1,380 Descending FlightAware
10:16PM -31.5870 152.2670 18° North 463 533 28,000 -1,860 Descending FlightAware
10:17PM -31.5270 152.2910 19° North 452 520 27,000 -2,100 Descending FlightAware
10:17PM -31.4620 152.3160 18° North 440 506 25,800 -1,020 Descending FlightAware
10:18PM -31.3960 152.3410 18° North 440 506 25,800  Level FlightAware
10:19PM -31.3360 152.3640 18° North 440 506 25,800  Level FlightAware
10:19PM -31.2760 152.3870 18° North 440 506 25,800  Level FlightAware
10:20PM -31.2170 152.4090 18° North 440 506 25,800  Level FlightAware
10:20PM -31.1560 152.4320 18° North 440 506 25,800  Level FlightAware
10:21PM -31.0970 152.4550 18° North 440 506 25,800 -5,100 Level FlightAware
10:23PM -30.8968 152.6649 18° North 366 421 13,100 -5,040 Descending Aus ATC (RADAR)
10:24PM -30.8083 152.7232 30° Northeast 332 382 10,800 -2,160 Descending Aus ATC (RADAR)
10:25PM -30.7597 152.7555 30° Northeast 333 383 9,600 -1,920 Descending Aus ATC (RADAR)
10:25PM -30.7396 152.7688 30° Northeast 328 377 9,200 -1,740 Descending Aus ATC (RADAR)
10:26PM -30.6896 152.8020 30° Northeast 330 380 8,100 -1,740 Descending Aus ATC (RADAR)
10:27PM -30.6089 152.8549 29° Northeast 307 353 6,300 -1,440 Descending Aus ATC (RADAR)
10:27PM -30.5742 152.8777 29° Northeast 291 335 5,900 -1,200 Descending Aus ATC (RADAR)
10:29PM -30.4789 152.9670 39° Northeast 216 249 3,600 -1,200 Descending Aus ATC (RADAR)
10:30PM -30.4301 153.0121 39° Northeast 218 251 2,500 -1,080 Descending Aus ATC (RADAR)
10:30PM -30.4204 153.0255 50° Northeast 194 223 2,200 -960 Descending Aus ATC (RADAR)
10:31PM -30.4034 153.0438 43° Northeast 159 183 1,700 -960 Descending Aus ATC (RADAR)
10:33PM -30.3206 153.1163 185° South  Level FlightAware Approximate
10:40PM -30.3206 153.1164 185° South  Level Estimated
10:41PM -30.3206 153.1164 185° South  Level Estimated
10:42PM -30.3206 153.1164 185° South  Level Estimated
10:43PM -30.3206 153.1164 185° South  Level Estimated